createdAt,value
2018-06-20T00:00:57.185Z,992.44
2018-06-20T00:01:57.375Z,992.39
2018-06-20T00:02:57.564Z,992.40
2018-06-20T00:03:57.738Z,992.39
2018-06-20T00:04:57.943Z,992.39
2018-06-20T00:05:58.123Z,992.38
2018-06-20T00:06:58.299Z,992.37
2018-06-20T00:07:58.493Z,992.38
2018-06-20T00:08:58.678Z,992.38
2018-06-20T00:09:58.864Z,992.38
2018-06-20T00:10:59.024Z,992.38
2018-06-20T00:11:59.228Z,992.35
2018-06-20T00:12:59.385Z,992.35
2018-06-20T00:13:59.584Z,992.37
2018-06-20T00:14:59.775Z,992.37
2018-06-20T00:15:59.936Z,992.40
2018-06-20T00:17:00.124Z,992.37
2018-06-20T00:18:00.300Z,992.36
2018-06-20T00:19:00.482Z,992.33
2018-06-20T00:20:00.676Z,992.35
2018-06-20T00:21:00.854Z,992.32
2018-06-20T00:22:01.038Z,992.29
2018-06-20T00:23:01.277Z,992.27
2018-06-20T00:24:01.407Z,992.28
2018-06-20T00:25:01.583Z,992.25
2018-06-20T00:26:01.776Z,992.21
2018-06-20T00:27:01.959Z,992.27
2018-06-20T00:28:02.135Z,992.24
2018-06-20T00:29:02.335Z,992.26
2018-06-20T00:30:02.516Z,992.24
2018-06-20T00:31:02.701Z,992.21
2018-06-20T00:32:02.887Z,992.23
2018-06-20T00:33:03.099Z,992.18
2018-06-20T00:34:03.265Z,992.20
2018-06-20T00:35:03.480Z,992.21
2018-06-20T00:36:03.650Z,992.19
2018-06-20T00:37:03.818Z,992.20
2018-06-20T00:38:04.037Z,992.15
2018-06-20T00:39:04.176Z,992.15
2018-06-20T00:40:04.361Z,992.17
2018-06-20T00:41:04.574Z,992.17
2018-06-20T00:42:04.717Z,992.14
2018-06-20T00:43:04.897Z,992.16
2018-06-20T00:44:05.081Z,992.17
2018-06-20T00:45:05.278Z,992.14
2018-06-20T00:46:05.436Z,992.15
2018-06-20T00:47:05.627Z,992.13
2018-06-20T00:48:05.818Z,992.15
2018-06-20T00:49:06.006Z,992.15
2018-06-20T00:50:06.175Z,992.17
2018-06-20T00:51:06.369Z,992.12
2018-06-20T00:52:06.537Z,992.12
2018-06-20T00:53:06.726Z,992.12
2018-06-20T00:54:06.941Z,992.11
2018-06-20T00:55:07.128Z,992.11
2018-06-20T00:56:07.278Z,992.11
2018-06-20T00:57:07.463Z,992.14
2018-06-20T00:58:07.679Z,992.11
2018-06-20T00:59:07.820Z,992.09
2018-06-20T01:00:08.009Z,992.08
2018-06-20T01:01:08.194Z,992.07
2018-06-20T01:02:08.390Z,992.05
2018-06-20T01:03:08.574Z,992.02
2018-06-20T01:04:08.746Z,992.03
2018-06-20T01:05:08.929Z,992.05
2018-06-20T01:06:09.110Z,992.03
2018-06-20T01:07:09.299Z,992.08
2018-06-20T01:08:09.484Z,992.08
2018-06-20T01:09:09.682Z,992.10
2018-06-20T01:10:09.846Z,992.07
2018-06-20T01:11:10.027Z,992.05
2018-06-20T01:12:10.202Z,992.01
2018-06-20T01:13:10.391Z,992.01
2018-06-20T01:14:10.582Z,991.98
2018-06-20T01:15:10.819Z,992.00
2018-06-20T01:16:10.946Z,991.94
2018-06-20T01:17:11.135Z,991.92
2018-06-20T01:18:11.320Z,991.97
2018-06-20T01:19:11.502Z,991.97
2018-06-20T01:20:11.720Z,991.96
2018-06-20T01:21:11.861Z,992.01
2018-06-20T01:22:12.061Z,991.99
2018-06-20T01:23:12.225Z,992.02
2018-06-20T01:24:12.401Z,992.02
2018-06-20T01:25:12.593Z,992.01
2018-06-20T01:26:12.785Z,992.02
2018-06-20T01:27:12.990Z,992.04
2018-06-20T01:28:13.165Z,992.04
2018-06-20T01:29:13.304Z,991.99
2018-06-20T01:30:13.506Z,992.02
2018-06-20T01:31:13.667Z,992.02
2018-06-20T01:32:13.857Z,992.05
2018-06-20T01:33:14.063Z,992.06
2018-06-20T01:34:14.227Z,992.04
2018-06-20T01:35:14.402Z,992.02
2018-06-20T01:36:14.568Z,992.03
2018-06-20T01:37:14.752Z,992.01
2018-06-20T01:38:14.984Z,992.00
2018-06-20T01:39:15.109Z,991.99
2018-06-20T01:40:15.294Z,991.99
2018-06-20T01:41:15.483Z,991.94
2018-06-20T01:42:15.657Z,991.94
2018-06-20T01:43:15.841Z,991.94
2018-06-20T01:44:16.018Z,991.95
2018-06-20T01:45:16.207Z,991.94
2018-06-20T01:46:16.406Z,991.94
2018-06-20T01:47:16.572Z,991.96
2018-06-20T01:48:16.853Z,991.94
2018-06-20T01:49:16.946Z,991.92
2018-06-20T01:50:17.116Z,991.94
2018-06-20T01:51:17.308Z,991.96
2018-06-20T01:52:17.478Z,991.94
2018-06-20T01:53:17.666Z,991.96
2018-06-20T01:54:17.845Z,991.96
2018-06-20T01:55:18.029Z,991.96
2018-06-20T01:56:18.224Z,991.95
2018-06-20T01:57:18.402Z,991.96
2018-06-20T01:58:18.590Z,991.97
2018-06-20T01:59:18.767Z,991.97
2018-06-20T02:00:18.974Z,992.01
2018-06-20T02:01:19.136Z,991.99
2018-06-20T02:02:19.322Z,992.00
2018-06-20T02:03:19.510Z,992.01
2018-06-20T02:04:19.689Z,992.01
2018-06-20T02:05:19.872Z,992.02
2018-06-20T02:06:20.052Z,992.03
2018-06-20T02:07:20.238Z,992.02
2018-06-20T02:08:20.450Z,992.00
2018-06-20T02:09:20.601Z,991.99
2018-06-20T02:10:20.835Z,991.99
2018-06-20T02:11:20.990Z,991.96
2018-06-20T02:12:21.179Z,991.95
2018-06-20T02:13:21.336Z,991.94
2018-06-20T02:14:21.529Z,991.97
2018-06-20T02:15:21.714Z,991.98
2018-06-20T02:16:21.886Z,991.98
2018-06-20T02:17:22.061Z,991.97
2018-06-20T02:18:22.238Z,991.96
2018-06-20T02:19:22.449Z,991.98
2018-06-20T02:20:22.590Z,991.93
2018-06-20T02:21:22.770Z,991.95
2018-06-20T02:22:22.959Z,991.94
2018-06-20T02:23:23.156Z,991.93
2018-06-20T02:24:23.336Z,991.91
2018-06-20T02:25:23.565Z,991.96
2018-06-20T02:26:23.727Z,991.94
2018-06-20T02:27:23.910Z,991.96
2018-06-20T02:28:24.101Z,991.99
2018-06-20T02:29:24.294Z,991.95
2018-06-20T02:30:24.423Z,991.93
2018-06-20T02:31:24.598Z,991.91
2018-06-20T02:32:24.778Z,991.92
2018-06-20T02:33:24.967Z,991.89
2018-06-20T02:34:25.167Z,991.92
2018-06-20T02:35:25.342Z,991.87
2018-06-20T02:36:25.546Z,991.87
2018-06-20T02:37:25.703Z,991.88
2018-06-20T02:38:25.874Z,991.85
2018-06-20T02:39:26.078Z,991.82
2018-06-20T02:40:26.291Z,991.82
2018-06-20T02:41:26.434Z,991.86
2018-06-20T02:42:26.614Z,991.82
2018-06-20T02:43:26.792Z,991.86
2018-06-20T02:44:26.978Z,991.82
2018-06-20T02:45:27.163Z,991.88
2018-06-20T02:46:27.318Z,991.87
2018-06-20T02:47:27.504Z,991.89
2018-06-20T02:48:27.685Z,991.92
2018-06-20T02:49:27.862Z,991.89
2018-06-20T02:50:28.059Z,991.89
2018-06-20T02:51:28.215Z,991.90
2018-06-20T02:52:28.399Z,991.87
2018-06-20T02:53:28.585Z,991.90
2018-06-20T02:54:28.813Z,991.93
2018-06-20T02:55:28.962Z,991.91
2018-06-20T02:56:29.151Z,991.92
2018-06-20T02:57:29.349Z,991.93
2018-06-20T02:58:29.509Z,991.89
2018-06-20T02:59:29.698Z,991.91
2018-06-20T03:00:29.898Z,991.89
2018-06-20T03:01:30.067Z,991.86
2018-06-20T03:02:30.255Z,991.89
2018-06-20T03:03:30.450Z,991.90
2018-06-20T03:04:30.633Z,991.89
2018-06-20T03:05:30.785Z,991.89
2018-06-20T03:06:30.981Z,991.88
2018-06-20T03:07:31.192Z,991.92
2018-06-20T03:08:31.356Z,991.94
2018-06-20T03:09:31.540Z,991.92
2018-06-20T03:10:31.730Z,991.88
2018-06-20T03:11:31.914Z,991.86
2018-06-20T03:12:32.096Z,991.82
2018-06-20T03:13:32.330Z,991.83
2018-06-20T03:14:32.454Z,991.82
2018-06-20T03:15:32.642Z,991.83
2018-06-20T03:16:32.824Z,991.81
2018-06-20T03:17:32.998Z,991.82
2018-06-20T03:18:33.221Z,991.86
2018-06-20T03:19:33.365Z,991.84
2018-06-20T03:20:33.546Z,991.84
2018-06-20T03:21:33.722Z,991.86
2018-06-20T03:22:33.911Z,991.82
2018-06-20T03:23:34.181Z,991.83
2018-06-20T03:24:34.314Z,991.83
2018-06-20T03:25:34.464Z,991.83
2018-06-20T03:26:34.642Z,991.79
2018-06-20T03:27:34.825Z,991.79
2018-06-20T03:28:35.012Z,991.78
2018-06-20T03:29:35.210Z,991.80
2018-06-20T03:30:35.393Z,991.80
2018-06-20T03:31:35.605Z,991.82
2018-06-20T03:32:35.762Z,991.79
2018-06-20T03:33:35.942Z,991.84
2018-06-20T03:34:36.132Z,991.85
2018-06-20T03:35:36.318Z,991.86
2018-06-20T03:36:36.569Z,991.87
2018-06-20T03:37:36.687Z,991.87
2018-06-20T03:38:36.850Z,991.88
2018-06-20T03:39:37.042Z,991.92
2018-06-20T03:40:37.242Z,991.89
2018-06-20T03:41:37.403Z,991.85
2018-06-20T03:42:37.582Z,991.88
2018-06-20T03:43:37.753Z,991.89
2018-06-20T03:44:37.938Z,991.89
2018-06-20T03:45:38.121Z,991.86
2018-06-20T03:46:38.302Z,991.89
2018-06-20T03:47:38.496Z,991.87
2018-06-20T03:48:38.682Z,991.85
2018-06-20T03:49:38.872Z,991.83
2018-06-20T03:50:39.118Z,991.84
2018-06-20T03:51:39.238Z,991.85
2018-06-20T03:52:39.429Z,991.85
2018-06-20T03:53:39.622Z,991.85
2018-06-20T03:54:39.768Z,991.84
2018-06-20T03:55:39.950Z,991.80
2018-06-20T03:56:40.147Z,991.83
2018-06-20T03:57:40.326Z,991.82
2018-06-20T03:58:40.510Z,991.78
2018-06-20T03:59:40.700Z,991.80
2018-06-20T04:00:40.884Z,991.78
2018-06-20T04:01:41.052Z,991.74
2018-06-20T04:02:41.228Z,991.84
2018-06-20T04:03:41.413Z,991.83
2018-06-20T04:04:41.596Z,991.85
2018-06-20T04:05:41.788Z,991.87
2018-06-20T04:06:41.951Z,991.87
2018-06-20T04:07:42.135Z,991.88
2018-06-20T04:08:42.323Z,991.85
2018-06-20T04:09:42.510Z,991.82
2018-06-20T04:10:42.698Z,991.85
2018-06-20T04:11:42.886Z,991.87
2018-06-20T04:12:43.093Z,991.89
2018-06-20T04:13:43.240Z,991.91
2018-06-20T04:14:43.425Z,991.92
2018-06-20T04:15:43.598Z,991.92
2018-06-20T04:16:43.792Z,991.89
2018-06-20T04:17:43.980Z,991.87
2018-06-20T04:18:44.177Z,991.85
2018-06-20T04:19:44.357Z,991.85
2018-06-20T04:20:44.541Z,991.88
2018-06-20T04:21:44.734Z,991.85
2018-06-20T04:22:44.920Z,991.86
2018-06-20T04:23:45.111Z,991.83
2018-06-20T04:24:45.263Z,991.88
2018-06-20T04:25:45.447Z,991.85
2018-06-20T04:26:45.615Z,991.84
2018-06-20T04:27:45.805Z,991.84
2018-06-20T04:28:45.981Z,991.84
2018-06-20T04:29:46.181Z,991.85
2018-06-20T04:30:46.350Z,991.83
2018-06-20T04:31:46.545Z,991.81
2018-06-20T04:32:46.735Z,991.86
2018-06-20T04:33:46.896Z,991.82
2018-06-20T04:34:47.184Z,991.83
2018-06-20T04:35:47.261Z,991.81
2018-06-20T04:36:47.445Z,991.80
2018-06-20T04:37:47.631Z,991.78
2018-06-20T04:38:47.809Z,991.77
2018-06-20T04:39:48.039Z,991.78
2018-06-20T04:40:48.193Z,991.79
2018-06-20T04:41:48.397Z,991.77
2018-06-20T04:42:48.558Z,991.77
2018-06-20T04:43:48.758Z,991.78
2018-06-20T04:44:48.910Z,991.81
2018-06-20T04:45:49.094Z,991.80
2018-06-20T04:46:49.280Z,991.76
2018-06-20T04:47:49.479Z,991.77
2018-06-20T04:48:49.644Z,991.74
2018-06-20T04:49:49.823Z,991.77
2018-06-20T04:50:50.020Z,991.80
2018-06-20T04:51:50.195Z,991.77
2018-06-20T04:52:50.378Z,991.76
2018-06-20T04:53:50.564Z,991.82
2018-06-20T04:54:50.755Z,991.79
2018-06-20T04:55:50.926Z,991.76
2018-06-20T04:56:51.112Z,991.75
2018-06-20T04:57:51.300Z,991.71
2018-06-20T04:58:51.479Z,991.72
2018-06-20T04:59:51.660Z,991.72
2018-06-20T05:00:51.852Z,991.67
2018-06-20T05:01:52.021Z,991.66
2018-06-20T05:02:52.239Z,991.71
2018-06-20T05:03:52.405Z,991.65
2018-06-20T05:04:52.590Z,991.66
2018-06-20T05:05:52.781Z,991.65
2018-06-20T05:06:52.972Z,991.65
2018-06-20T05:07:53.157Z,991.63
2018-06-20T05:08:53.344Z,991.62
2018-06-20T05:09:53.536Z,991.64
2018-06-20T05:10:53.725Z,991.64
2018-06-20T05:11:53.963Z,991.64
2018-06-20T05:12:54.106Z,991.64
2018-06-20T05:13:54.294Z,991.61
2018-06-20T05:14:54.519Z,991.60
2018-06-20T05:15:54.666Z,991.60
2018-06-20T05:16:54.857Z,991.60
2018-06-20T05:17:55.044Z,991.60
2018-06-20T05:18:55.226Z,991.63
2018-06-20T05:19:55.425Z,991.66
2018-06-20T05:20:55.590Z,991.66
2018-06-20T05:21:55.794Z,991.63
2018-06-20T05:22:55.966Z,991.62
2018-06-20T05:23:56.147Z,991.68
2018-06-20T05:24:56.336Z,991.61
2018-06-20T05:25:56.521Z,991.61
2018-06-20T05:26:56.706Z,991.60
2018-06-20T05:27:56.892Z,991.61
2018-06-20T05:28:57.080Z,991.61
2018-06-20T05:29:57.270Z,991.59
2018-06-20T05:30:57.457Z,991.60
2018-06-20T05:31:57.646Z,991.62
2018-06-20T05:32:57.874Z,991.60
2018-06-20T05:33:58.051Z,991.61
2018-06-20T05:34:58.199Z,991.62
2018-06-20T05:35:58.451Z,991.62
2018-06-20T05:36:58.560Z,991.58
2018-06-20T05:37:58.751Z,991.60
2018-06-20T05:38:58.925Z,991.59
2018-06-20T05:39:59.150Z,991.64
2018-06-20T05:40:59.308Z,991.62
2018-06-20T05:41:59.522Z,991.64
2018-06-20T05:42:59.691Z,991.66
2018-06-20T05:43:59.881Z,991.67
2018-06-20T05:45:00.080Z,991.64
2018-06-20T05:46:00.251Z,991.66
2018-06-20T05:47:00.441Z,991.67
2018-06-20T05:48:00.639Z,991.64
2018-06-20T05:49:00.814Z,991.68
2018-06-20T05:50:00.992Z,991.70
2018-06-20T05:51:01.175Z,991.69
2018-06-20T05:52:01.364Z,991.73
2018-06-20T05:53:01.549Z,991.80
2018-06-20T05:54:01.742Z,991.80
2018-06-20T05:55:01.922Z,991.82
2018-06-20T05:56:02.110Z,991.95
2018-06-20T05:57:02.299Z,991.90
2018-06-20T05:58:02.493Z,992.02
2018-06-20T05:59:02.678Z,991.97
2018-06-20T06:00:02.870Z,992.04
2018-06-20T06:01:03.094Z,991.91
2018-06-20T06:02:03.229Z,991.94
2018-06-20T06:03:03.430Z,991.98
2018-06-20T06:04:03.606Z,992.01
2018-06-20T06:05:03.803Z,992.00
2018-06-20T06:06:04.012Z,991.99
2018-06-20T06:07:04.177Z,991.95
2018-06-20T06:08:04.365Z,991.91
2018-06-20T06:09:04.584Z,991.87
2018-06-20T06:10:04.733Z,991.87
2018-06-20T06:11:04.925Z,991.87
2018-06-20T06:12:05.177Z,991.89
2018-06-20T06:13:05.287Z,991.89
2018-06-20T06:14:05.493Z,991.89
2018-06-20T06:15:05.698Z,991.91
2018-06-20T06:16:05.881Z,991.86
2018-06-20T06:17:06.108Z,991.85
2018-06-20T06:18:06.276Z,991.81
2018-06-20T06:19:06.449Z,991.80
2018-06-20T06:20:06.672Z,991.76
2018-06-20T06:21:06.829Z,991.79
2018-06-20T06:22:07.008Z,991.79
2018-06-20T06:23:07.202Z,991.79
2018-06-20T06:24:07.446Z,991.77
2018-06-20T06:25:07.595Z,991.77
2018-06-20T06:26:07.788Z,991.74
2018-06-20T06:27:08.034Z,991.77
2018-06-20T06:28:08.172Z,991.75
2018-06-20T06:29:08.362Z,991.74
2018-06-20T06:30:08.563Z,991.74
2018-06-20T06:31:08.779Z,991.73
2018-06-20T06:32:08.979Z,991.75
2018-06-20T06:33:09.170Z,991.80
2018-06-20T06:34:09.324Z,991.74
2018-06-20T06:35:09.515Z,991.74
2018-06-20T06:36:09.709Z,991.76
2018-06-20T06:37:09.901Z,991.73
2018-06-20T06:38:10.083Z,991.78
2018-06-20T06:39:10.268Z,991.74
2018-06-20T06:40:10.480Z,991.73
2018-06-20T06:41:10.634Z,991.71
2018-06-20T06:42:10.836Z,991.69
2018-06-20T06:43:11.035Z,991.69
2018-06-20T06:44:11.185Z,991.68
2018-06-20T06:45:11.395Z,991.64
2018-06-20T06:46:11.587Z,991.66
2018-06-20T06:47:11.783Z,991.62
2018-06-20T06:48:11.959Z,991.60
2018-06-20T06:49:12.154Z,991.59
2018-06-20T06:50:12.428Z,991.59
2018-06-20T06:51:12.530Z,991.55
2018-06-20T06:52:12.742Z,991.59
2018-06-20T06:53:12.935Z,991.59
2018-06-20T06:54:13.071Z,991.61
2018-06-20T06:55:13.259Z,991.56
2018-06-20T06:56:13.459Z,991.56
2018-06-20T06:57:13.647Z,991.56
2018-06-20T06:58:13.825Z,991.56
2018-06-20T06:59:14.022Z,991.56
2018-06-20T07:00:14.227Z,991.56
2018-06-20T07:01:14.386Z,991.53
2018-06-20T07:02:14.600Z,991.57
2018-06-20T07:03:14.758Z,991.59
2018-06-20T07:04:14.944Z,991.58
2018-06-20T07:05:15.137Z,991.60
2018-06-20T07:06:15.340Z,991.55
2018-06-20T07:07:15.547Z,991.57
2018-06-20T07:08:15.755Z,991.52
2018-06-20T07:09:16.003Z,991.49
2018-06-20T07:10:16.137Z,991.50
2018-06-20T07:11:16.326Z,991.50
2018-06-20T07:12:16.516Z,991.53
2018-06-20T07:13:16.704Z,991.62
2018-06-20T07:14:16.899Z,991.61
2018-06-20T07:15:17.093Z,991.62
2018-06-20T07:16:17.283Z,991.58
2018-06-20T07:17:17.482Z,991.58
2018-06-20T07:18:17.671Z,991.58
2018-06-20T07:19:17.857Z,991.65
2018-06-20T07:20:18.053Z,991.70
2018-06-20T07:21:18.259Z,991.75
2018-06-20T07:22:18.431Z,991.75
2018-06-20T07:23:18.619Z,991.73
2018-06-20T07:24:18.880Z,991.74
2018-06-20T07:25:19.014Z,991.75
2018-06-20T07:26:19.184Z,991.78
2018-06-20T07:27:19.373Z,991.79
2018-06-20T07:28:19.574Z,991.81
2018-06-20T07:29:19.852Z,991.80
2018-06-20T07:30:19.958Z,991.82
2018-06-20T07:31:20.149Z,991.79
2018-06-20T07:32:20.345Z,991.76
2018-06-20T07:33:20.534Z,991.76
2018-06-20T07:34:20.763Z,991.73
2018-06-20T07:35:20.941Z,991.72
2018-06-20T07:36:21.115Z,991.70
2018-06-20T07:37:21.301Z,991.70
2018-06-20T07:38:21.498Z,991.66
2018-06-20T07:39:21.692Z,991.67
2018-06-20T07:40:21.877Z,991.67
2018-06-20T07:41:22.067Z,991.66
2018-06-20T07:42:22.268Z,991.68
2018-06-20T07:43:22.502Z,991.68
2018-06-20T07:44:22.641Z,991.68
2018-06-20T07:45:22.828Z,991.66
2018-06-20T07:46:23.021Z,991.67
2018-06-20T07:47:23.211Z,991.66
2018-06-20T07:48:23.410Z,991.69
2018-06-20T07:49:23.605Z,991.62
2018-06-20T07:50:23.802Z,991.36
2018-06-20T07:51:24.295Z,991.61
2018-06-20T07:52:24.178Z,991.60
2018-06-20T07:53:24.373Z,991.62
2018-06-20T07:54:24.578Z,991.64
2018-06-20T07:55:24.775Z,991.34
2018-06-20T07:56:24.970Z,991.56
2018-06-20T07:57:25.192Z,991.57
2018-06-20T07:58:25.357Z,991.27
2018-06-20T07:59:25.555Z,991.31
2018-06-20T08:00:25.752Z,991.55
2018-06-20T08:01:25.952Z,991.53
2018-06-20T08:02:26.192Z,991.44
2018-06-20T08:03:26.337Z,991.47
2018-06-20T08:04:26.535Z,991.55
2018-06-20T08:05:26.736Z,991.27
2018-06-20T08:06:26.942Z,991.30
2018-06-20T08:07:27.098Z,991.21
2018-06-20T08:08:27.292Z,991.17
2018-06-20T08:09:27.483Z,991.18
2018-06-20T08:10:27.678Z,991.44
2018-06-20T08:11:27.869Z,991.20
2018-06-20T08:12:28.121Z,991.17
2018-06-20T08:13:28.262Z,991.41
2018-06-20T08:14:28.474Z,991.12
2018-06-20T08:15:28.666Z,991.09
2018-06-20T08:16:28.835Z,991.11
2018-06-20T08:17:29.035Z,991.11
2018-06-20T08:18:29.230Z,991.14
2018-06-20T08:19:29.431Z,991.39
2018-06-20T08:20:29.620Z,991.18
2018-06-20T08:21:29.818Z,991.31
2018-06-20T08:22:30.014Z,991.20
2018-06-20T08:23:30.208Z,991.28
2018-06-20T08:24:30.419Z,991.13
2018-06-20T08:25:30.614Z,991.16
2018-06-20T08:26:30.790Z,991.10
2018-06-20T08:27:30.979Z,991.13
2018-06-20T08:28:31.169Z,991.12
2018-06-20T08:29:31.352Z,991.11
2018-06-20T08:30:31.546Z,991.10
2018-06-20T08:31:31.742Z,991.09
2018-06-20T08:32:31.938Z,991.10
2018-06-20T08:33:32.136Z,991.10
2018-06-20T08:34:32.335Z,991.22
2018-06-20T08:35:32.558Z,991.19
2018-06-20T08:36:32.718Z,991.19
2018-06-20T08:37:32.924Z,991.01
2018-06-20T08:38:33.100Z,990.99
2018-06-20T08:39:33.253Z,991.13
2018-06-20T08:40:33.443Z,990.98
2018-06-20T08:41:33.635Z,991.08
2018-06-20T08:42:33.889Z,991.04
2018-06-20T08:43:34.019Z,991.04
2018-06-20T08:44:34.238Z,990.99
2018-06-20T08:45:34.409Z,990.97
2018-06-20T08:46:34.592Z,991.01
2018-06-20T08:47:34.778Z,991.00
2018-06-20T08:48:34.977Z,991.02
2018-06-20T08:49:35.164Z,991.01
2018-06-20T08:50:35.381Z,991.03
2018-06-20T08:51:35.547Z,991.00
2018-06-20T08:52:35.731Z,991.03
2018-06-20T08:53:35.924Z,991.04
2018-06-20T08:54:36.138Z,991.03
2018-06-20T08:55:36.315Z,991.05
2018-06-20T08:56:36.494Z,991.06
2018-06-20T08:57:36.688Z,991.02
2018-06-20T08:58:36.876Z,991.03
2018-06-20T08:59:37.092Z,991.09
2018-06-20T09:00:37.268Z,990.99
2018-06-20T09:01:37.463Z,991.04
2018-06-20T09:02:37.655Z,991.03
2018-06-20T09:03:37.854Z,991.03
2018-06-20T09:04:38.040Z,990.99
2018-06-20T09:05:38.260Z,991.00
2018-06-20T09:06:38.414Z,991.00
2018-06-20T09:07:38.599Z,991.03
2018-06-20T09:08:38.809Z,990.96
2018-06-20T09:09:39.001Z,990.97
2018-06-20T09:10:39.175Z,990.93
2018-06-20T09:11:39.369Z,990.94
2018-06-20T09:12:39.672Z,990.93
2018-06-20T09:13:39.712Z,990.93
2018-06-20T09:14:39.916Z,990.89
2018-06-20T09:15:40.123Z,990.98
2018-06-20T09:16:40.337Z,990.90
2018-06-20T09:17:40.501Z,990.90
2018-06-20T09:18:40.702Z,990.88
2018-06-20T09:19:40.889Z,990.99
2018-06-20T09:20:41.107Z,991.01
2018-06-20T09:21:41.296Z,990.93
2018-06-20T09:22:41.449Z,990.97
2018-06-20T09:23:41.654Z,990.90
2018-06-20T09:24:41.853Z,990.91
2018-06-20T09:25:42.028Z,990.85
2018-06-20T09:26:42.228Z,990.89
2018-06-20T09:27:42.415Z,990.88
2018-06-20T09:28:42.584Z,990.88
2018-06-20T09:29:42.837Z,990.97
2018-06-20T09:30:43.033Z,990.81
2018-06-20T09:31:43.213Z,990.80
2018-06-20T09:32:43.404Z,990.88
2018-06-20T09:33:43.625Z,990.88
2018-06-20T09:34:43.792Z,990.85
2018-06-20T09:35:43.972Z,990.88
2018-06-20T09:36:44.164Z,990.83
2018-06-20T09:37:44.358Z,990.79
2018-06-20T09:38:44.560Z,990.78
2018-06-20T09:39:44.829Z,990.77
2018-06-20T09:40:44.971Z,990.73
2018-06-20T09:41:45.328Z,990.77
2018-06-20T09:42:45.320Z,990.77
2018-06-20T09:43:45.516Z,990.76
2018-06-20T09:44:46.321Z,990.77
2018-06-20T09:45:45.930Z,990.77
2018-06-20T09:46:46.120Z,990.76
2018-06-20T09:47:46.314Z,990.81
2018-06-20T09:48:46.508Z,990.82
2018-06-20T09:49:46.726Z,990.79
2018-06-20T09:50:46.889Z,990.77
2018-06-20T09:51:47.090Z,990.70
2018-06-20T09:52:47.281Z,990.69
2018-06-20T09:53:47.470Z,990.70
2018-06-20T09:54:47.695Z,990.67
2018-06-20T09:55:47.834Z,990.66
2018-06-20T09:56:48.034Z,990.66
2018-06-20T09:57:48.215Z,990.68
2018-06-20T09:58:48.434Z,990.65
2018-06-20T09:59:48.576Z,990.59
2018-06-20T10:00:48.762Z,990.63
2018-06-20T10:01:48.957Z,990.65
2018-06-20T10:02:49.156Z,990.65
2018-06-20T10:03:49.348Z,990.64
2018-06-20T10:04:49.548Z,990.66
2018-06-20T10:05:49.763Z,990.65
2018-06-20T10:06:49.937Z,990.66
2018-06-20T10:07:50.133Z,990.64
2018-06-20T10:08:50.346Z,990.70
2018-06-20T10:09:50.484Z,990.69
2018-06-20T10:10:50.670Z,990.65
2018-06-20T10:11:50.886Z,990.67
2018-06-20T10:12:51.043Z,990.62
2018-06-20T10:13:51.247Z,990.64
2018-06-20T10:14:51.417Z,990.59
2018-06-20T10:15:51.611Z,990.57
2018-06-20T10:16:51.813Z,990.54
2018-06-20T10:17:52.058Z,990.54
2018-06-20T10:18:52.196Z,990.54
2018-06-20T10:19:52.393Z,990.52
2018-06-20T10:20:52.576Z,990.50
2018-06-20T10:21:52.772Z,990.45
2018-06-20T10:22:52.966Z,990.48
2018-06-20T10:23:53.187Z,990.46
2018-06-20T10:24:53.375Z,990.47
2018-06-20T10:25:53.547Z,990.48
2018-06-20T10:26:53.737Z,990.45
2018-06-20T10:27:53.929Z,990.41
2018-06-20T10:28:54.114Z,990.43
2018-06-20T10:29:54.311Z,990.46
2018-06-20T10:30:54.514Z,990.41
2018-06-20T10:31:54.685Z,990.45
2018-06-20T10:32:54.871Z,990.39
2018-06-20T10:33:55.075Z,990.36
2018-06-20T10:34:55.280Z,990.33
2018-06-20T10:35:55.450Z,990.33
2018-06-20T10:36:55.642Z,990.29
2018-06-20T10:37:55.840Z,990.26
2018-06-20T10:38:56.026Z,990.25
2018-06-20T10:39:56.264Z,990.26
2018-06-20T10:40:56.406Z,990.25
2018-06-20T10:41:56.595Z,990.24
2018-06-20T10:42:56.793Z,990.24
2018-06-20T10:43:56.990Z,990.30
2018-06-20T10:44:57.197Z,990.26
2018-06-20T10:45:57.474Z,990.22
2018-06-20T10:46:57.547Z,990.23
2018-06-20T10:47:57.736Z,990.20
2018-06-20T10:48:57.944Z,990.13
2018-06-20T10:49:58.186Z,990.16
2018-06-20T10:50:58.365Z,990.16
2018-06-20T10:51:58.516Z,990.13
2018-06-20T10:52:58.735Z,990.16
2018-06-20T10:53:58.916Z,990.17
2018-06-20T10:54:59.080Z,990.18
2018-06-20T10:55:59.330Z,990.14
2018-06-20T10:56:59.489Z,990.17
2018-06-20T10:57:59.714Z,990.11
2018-06-20T10:58:59.895Z,990.05
2018-06-20T11:00:00.085Z,990.06
2018-06-20T11:01:00.258Z,990.00
2018-06-20T11:02:00.422Z,990.00
2018-06-20T11:03:00.732Z,990.00
2018-06-20T11:04:00.870Z,989.95
2018-06-20T11:05:01.107Z,989.93
2018-06-20T11:06:01.203Z,989.97
2018-06-20T11:07:01.471Z,989.94
2018-06-20T11:08:01.597Z,989.90
2018-06-20T11:09:01.822Z,989.88
2018-06-20T11:10:02.030Z,989.91
2018-06-20T11:11:02.221Z,989.91
2018-06-20T11:12:02.370Z,989.86
2018-06-20T11:13:02.559Z,989.86
2018-06-20T11:14:02.744Z,989.84
2018-06-20T11:15:02.956Z,989.81
2018-06-20T11:16:03.137Z,989.82
2018-06-20T11:17:03.383Z,989.75
2018-06-20T11:18:03.499Z,989.76
2018-06-20T11:19:03.719Z,989.73
2018-06-20T11:20:03.875Z,989.75
2018-06-20T11:21:04.080Z,989.76
2018-06-20T11:22:04.261Z,989.76
2018-06-20T11:23:04.477Z,989.74
2018-06-20T11:24:04.677Z,989.70
2018-06-20T11:25:04.899Z,989.74
2018-06-20T11:26:05.053Z,989.70
2018-06-20T11:27:05.224Z,989.66
2018-06-20T11:28:05.400Z,989.69
2018-06-20T11:29:05.608Z,989.68
2018-06-20T11:30:05.775Z,989.66
2018-06-20T11:31:06.009Z,989.64
2018-06-20T11:32:06.133Z,989.67
2018-06-20T11:33:06.335Z,989.63
2018-06-20T11:34:06.532Z,989.60
2018-06-20T11:35:06.782Z,989.66
2018-06-20T11:36:06.897Z,989.58
2018-06-20T11:37:07.160Z,989.56
2018-06-20T11:38:07.278Z,989.57
2018-06-20T11:39:07.510Z,989.55
2018-06-20T11:40:07.662Z,989.52
2018-06-20T11:41:07.854Z,989.51
2018-06-20T11:42:08.052Z,989.52
2018-06-20T11:43:08.239Z,989.50
2018-06-20T11:44:08.454Z,989.47
2018-06-20T11:45:08.639Z,989.44
2018-06-20T11:46:08.808Z,989.45
2018-06-20T11:47:09.019Z,989.44
2018-06-20T11:48:09.226Z,989.39
2018-06-20T11:49:09.404Z,989.34
2018-06-20T11:50:09.559Z,989.32
2018-06-20T11:51:09.848Z,989.38
2018-06-20T11:52:10.014Z,989.41
2018-06-20T11:53:10.227Z,989.36
2018-06-20T11:54:10.405Z,989.33
2018-06-20T11:55:10.609Z,989.35
2018-06-20T11:56:10.736Z,989.30
2018-06-20T11:57:10.936Z,989.37
2018-06-20T11:58:11.161Z,989.26
2018-06-20T11:59:11.364Z,989.23
2018-06-20T12:00:11.470Z,989.25
2018-06-20T12:01:11.680Z,989.26
2018-06-20T12:02:11.846Z,989.29
2018-06-20T12:03:12.037Z,989.23
2018-06-20T12:04:12.228Z,989.20
2018-06-20T12:05:12.410Z,989.18
2018-06-20T12:06:12.650Z,989.20
2018-06-20T12:07:12.819Z,989.19
2018-06-20T12:08:13.013Z,989.17
2018-06-20T12:09:13.288Z,989.15
2018-06-20T12:10:13.368Z,989.10
2018-06-20T12:11:13.656Z,989.07
2018-06-20T12:12:13.804Z,989.07
2018-06-20T12:13:14.851Z,989.08
2018-06-20T12:14:14.165Z,989.11
2018-06-20T12:15:14.429Z,989.11
2018-06-20T12:16:14.563Z,989.08
2018-06-20T12:17:14.773Z,989.10
2018-06-20T12:19:15.118Z,989.10
2018-06-20T12:20:15.316Z,989.07
2018-06-20T12:21:15.567Z,989.10
2018-06-20T12:22:15.714Z,989.06
2018-06-20T12:23:15.899Z,989.04
2018-06-20T12:24:16.068Z,989.06
2018-06-20T12:25:16.302Z,989.04
2018-06-20T12:26:16.436Z,989.06
2018-06-20T12:27:16.654Z,989.01
2018-06-20T12:28:16.914Z,988.99
2018-06-20T12:29:17.096Z,988.98
2018-06-20T12:30:17.303Z,989.00
2018-06-20T12:31:17.484Z,988.95
2018-06-20T12:32:17.680Z,988.94